Etihad Airways Virtual Airport Information Service

Riyadh King Khalid International Airport

ICAO: OERK Country: Saudi Arabia
Latitude: 24.9576 Longitude: 46.6988
Latest Arrival : QTR1164 (1) (OTHH-OERK) Latest Departure : SVA1323 (OERK-OEHL)


WX CaptureLIVE
Data provided by noaa.gov | Recorded at 13:40:03

METAR : OERK 071300Z 02004KT 9999 FEW040 40/03 Q1010 NOSIG

TAF : OERK 071100Z 0712/0818 34010KT CAVOK BECMG 0716/0718 17008KT


Runway Data for OERK
Data provided by openaviationdata.com

Runway ID Mag Var Hdg Length Elevation Surface ILS Freq ILS Id ILS Slope

Riyadh King Khalid International Airport, Saudi Arabia
Use only for reference purposes